Lacarne, Ohio
Current Conditions -  °F | °C
As of 7:33 AM on Thursday 29 Jan 2015 (Local Time) from KPCW Reporting Station
Light Rain Light Rain  
Wind Chill: 24°   Ceiling: 5000
Heat Index: 34°   Visibility: 10mi
Dew Point: 23°   Wind: 14mph
Humidity: 65%   Direction: 180°S
Pressure: 29.81"   Gusts: NA
Location:  41.52°N, 83.04°W
Report Text: KPCW 291233Z AUTO 18012KT 10SM -RA OVC050 01/M05 A2981 RMK AO2 PRESFR $
Loading
Personal Weather Stations






























Interactive Weather Map New forecast layout! Learn more

10-Day Weather Forecast

Advertisements
Track Severe Weather on mobile